sensor_id;sensor_type;location;lat;lon;timestamp;pressure;altitude;pressure_sealevel;temperature;humidity
63088;BME280;49173;43.164;27.786;2022-08-11T00:00:37;100390.84;;;22.76;50.52
63088;BME280;49173;43.164;27.786;2022-08-11T00:03:06;100381.44;;;22.70;50.71
63088;BME280;49173;43.164;27.786;2022-08-11T00:05:44;100376.00;;;22.79;50.52
63088;BME280;49173;43.164;27.786;2022-08-11T00:10:52;100384.91;;;22.81;50.69
63088;BME280;49173;43.164;27.786;2022-08-11T00:13:20;100391.06;;;22.83;50.62
63088;BME280;49173;43.164;27.786;2022-08-11T00:15:47;100382.84;;;22.83;50.71
63088;BME280;49173;43.164;27.786;2022-08-11T00:18:13;100384.91;;;22.81;50.71
63088;BME280;49173;43.164;27.786;2022-08-11T00:20:41;100382.50;;;22.78;50.73
63088;BME280;49173;43.164;27.786;2022-08-11T00:23:11;100370.63;;;22.69;50.76
63088;BME280;49173;43.164;27.786;2022-08-11T00:25:40;100374.41;;;22.68;50.83
63088;BME280;49173;43.164;27.786;2022-08-11T00:28:27;100367.00;;;22.60;51.04
63088;BME280;49173;43.164;27.786;2022-08-11T00:30:56;100370.34;;;22.46;51.36
63088;BME280;49173;43.164;27.786;2022-08-11T00:33:29;100358.53;;;22.45;51.16
63088;BME280;49173;43.164;27.786;2022-08-11T00:35:58;100364.16;;;22.44;51.35
63088;BME280;49173;43.164;27.786;2022-08-11T00:38:29;100361.28;;;22.45;51.38
63088;BME280;49173;43.164;27.786;2022-08-11T00:58:18;100365.41;;;22.24;51.84
63088;BME280;49173;43.164;27.786;2022-08-11T01:01:12;100372.56;;;22.25;52.01
63088;BME280;49173;43.164;27.786;2022-08-11T01:04:27;100373.75;;;22.22;52.05
63088;BME280;49173;43.164;27.786;2022-08-11T01:07:45;100374.06;;;22.19;51.91
63088;BME280;49173;43.164;27.786;2022-08-11T01:16:19;100378.38;;;22.22;52.03
63088;BME280;49173;43.164;27.786;2022-08-11T01:19:30;100389.38;;;22.30;52.09
63088;BME280;49173;43.164;27.786;2022-08-11T01:31:11;100369.75;;;22.34;51.56
63088;BME280;49173;43.164;27.786;2022-08-11T01:37:01;100372.78;;;22.31;51.84
63088;BME280;49173;43.164;27.786;2022-08-11T01:39:55;100371.09;;;22.30;51.97
63088;BME280;49173;43.164;27.786;2022-08-11T01:51:12;100362.66;;;22.24;52.10
63088;BME280;49173;43.164;27.786;2022-08-11T02:00:01;100372.28;;;22.10;52.45
63088;BME280;49173;43.164;27.786;2022-08-11T02:13:59;100359.38;;;22.02;52.85
63088;BME280;49173;43.164;27.786;2022-08-11T02:16:47;100366.41;;;22.05;52.70
63088;BME280;49173;43.164;27.786;2022-08-11T02:25:17;100361.53;;;22.08;52.60
63088;BME280;49173;43.164;27.786;2022-08-11T02:31:06;100369.72;;;22.08;52.91
63088;BME280;49173;43.164;27.786;2022-08-11T02:33:59;100372.72;;;22.05;53.29
63088;BME280;49173;43.164;27.786;2022-08-11T02:36:42;100381.78;;;22.06;53.43
63088;BME280;49173;43.164;27.786;2022-08-11T02:39:12;100378.19;;;22.05;53.36
63088;BME280;49173;43.164;27.786;2022-08-11T02:48:27;100368.22;;;21.96;53.65
63088;BME280;49173;43.164;27.786;2022-08-11T02:51:13;100369.94;;;21.97;53.85
63088;BME280;49173;43.164;27.786;2022-08-11T03:10:12;100372.53;;;21.81;54.24
63088;BME280;49173;43.164;27.786;2022-08-11T03:13:02;100367.69;;;21.75;54.47
63088;BME280;49173;43.164;27.786;2022-08-11T03:19:13;100372.91;;;21.86;54.32
63088;BME280;49173;43.164;27.786;2022-08-11T03:24:24;100377.53;;;21.85;54.78
63088;BME280;49173;43.164;27.786;2022-08-11T03:27:06;100378.91;;;21.89;54.49
63088;BME280;49173;43.164;27.786;2022-08-11T03:29:48;100377.19;;;21.88;54.63
63088;BME280;49173;43.164;27.786;2022-08-11T03:35:36;100369.84;;;21.89;54.67
63088;BME280;49173;43.164;27.786;2022-08-11T03:38:07;100375.31;;;21.89;54.38
63088;BME280;49173;43.164;27.786;2022-08-11T03:40:47;100371.59;;;21.72;55.04
63088;BME280;49173;43.164;27.786;2022-08-11T03:43:56;100369.56;;;21.74;54.76
63088;BME280;49173;43.164;27.786;2022-08-11T03:49:41;100366.41;;;21.69;55.27
63088;BME280;49173;43.164;27.786;2022-08-11T03:55:36;100388.66;;;21.56;55.94
63088;BME280;49173;43.164;27.786;2022-08-11T04:03:59;100379.06;;;21.70;55.66
63088;BME280;49173;43.164;27.786;2022-08-11T04:06:52;100381.50;;;21.73;55.41
63088;BME280;49173;43.164;27.786;2022-08-11T04:15:23;100374.88;;;21.58;55.91
63088;BME280;49173;43.164;27.786;2022-08-11T04:18:27;100376.63;;;21.49;56.12
63088;BME280;49173;43.164;27.786;2022-08-11T04:24:24;100375.75;;;21.21;57.72
63088;BME280;49173;43.164;27.786;2022-08-11T04:32:33;100380.59;;;21.09;59.02
63088;BME280;49173;43.164;27.786;2022-08-11T04:41:12;100385.44;;;21.16;59.84
63088;BME280;49173;43.164;27.786;2022-08-11T04:49:34;100385.16;;;21.64;58.95
63088;BME280;49173;43.164;27.786;2022-08-11T04:53:04;100381.66;;;21.72;59.02
63088;BME280;49173;43.164;27.786;2022-08-11T04:56:10;100377.38;;;21.87;58.60
63088;BME280;49173;43.164;27.786;2022-08-11T05:02:18;100383.78;;;22.13;57.93
63088;BME280;49173;43.164;27.786;2022-08-11T05:05:08;100379.97;;;22.32;57.58
63088;BME280;49173;43.164;27.786;2022-08-11T05:13:27;100376.88;;;22.53;56.41
63088;BME280;49173;43.164;27.786;2022-08-11T05:16:19;100375.53;;;22.57;56.28
63088;BME280;49173;43.164;27.786;2022-08-11T05:19:04;100386.53;;;22.65;56.42
63088;BME280;49173;43.164;27.786;2022-08-11T05:21:56;100385.22;;;22.69;56.29
63088;BME280;49173;43.164;27.786;2022-08-11T05:24:47;100375.47;;;22.75;56.29
63088;BME280;49173;43.164;27.786;2022-08-11T05:27:44;100383.31;;;22.96;56.32
63088;BME280;49173;43.164;27.786;2022-08-11T05:30:33;100377.56;;;23.15;55.23
63088;BME280;49173;43.164;27.786;2022-08-11T05:33:33;100376.19;;;23.11;54.69
63088;BME280;49173;43.164;27.786;2022-08-11T05:36:39;100373.53;;;23.27;54.68
63088;BME280;49173;43.164;27.786;2022-08-11T05:39:16;100395.63;;;23.34;54.53
63088;BME280;49173;43.164;27.786;2022-08-11T05:42:06;100383.44;;;23.28;54.59
63088;BME280;49173;43.164;27.786;2022-08-11T05:44:55;100383.50;;;23.45;54.45
63088;BME280;49173;43.164;27.786;2022-08-11T05:47:41;100394.16;;;23.56;54.66
63088;BME280;49173;43.164;27.786;2022-08-11T05:50:26;100388.03;;;23.62;54.14
63088;BME280;49173;43.164;27.786;2022-08-11T05:53:12;100387.00;;;23.71;53.94
63088;BME280;49173;43.164;27.786;2022-08-11T05:56:03;100396.09;;;23.88;54.29
63088;BME280;49173;43.164;27.786;2022-08-11T05:58:50;100397.31;;;24.02;53.83
63088;BME280;49173;43.164;27.786;2022-08-11T06:01:25;100388.59;;;24.15;53.46
63088;BME280;49173;43.164;27.786;2022-08-11T06:03:54;100387.91;;;24.21;53.44
63088;BME280;49173;43.164;27.786;2022-08-11T06:07:02;100389.44;;;24.31;52.93
63088;BME280;49173;43.164;27.786;2022-08-11T06:09:33;100399.06;;;24.35;51.62
63088;BME280;49173;43.164;27.786;2022-08-11T06:12:07;100389.59;;;24.30;51.81
63088;BME280;49173;43.164;27.786;2022-08-11T06:14:35;100395.78;;;24.32;51.69
63088;BME280;49173;43.164;27.786;2022-08-11T06:17:07;100377.13;;;24.35;51.33
63088;BME280;49173;43.164;27.786;2022-08-11T06:19:37;100375.56;;;24.41;51.67
63088;BME280;49173;43.164;27.786;2022-08-11T06:22:05;100370.44;;;24.46;50.98
63088;BME280;49173;43.164;27.786;2022-08-11T06:24:34;100374.19;;;24.53;50.78
63088;BME280;49173;43.164;27.786;2022-08-11T06:27:02;100378.84;;;24.53;50.67
63088;BME280;49173;43.164;27.786;2022-08-11T06:29:29;100374.34;;;24.60;50.69
63088;BME280;49173;43.164;27.786;2022-08-11T06:31:59;100371.59;;;24.52;50.46
63088;BME280;49173;43.164;27.786;2022-08-11T06:37:08;100367.63;;;24.71;50.22
63088;BME280;49173;43.164;27.786;2022-08-11T06:45:39;100371.03;;;24.73;49.62
63088;BME280;49173;43.164;27.786;2022-08-11T06:48:15;100378.75;;;24.77;49.76
63088;BME280;49173;43.164;27.786;2022-08-11T06:50:48;100372.03;;;24.80;48.96
63088;BME280;49173;43.164;27.786;2022-08-11T06:53:33;100380.09;;;24.89;48.97
63088;BME280;49173;43.164;27.786;2022-08-11T06:56:00;100365.31;;;24.99;48.66
63088;BME280;49173;43.164;27.786;2022-08-11T06:58:47;100368.72;;;25.01;48.33
63088;BME280;49173;43.164;27.786;2022-08-11T07:01:46;100368.19;;;25.13;48.29
63088;BME280;49173;43.164;27.786;2022-08-11T07:04:31;100382.22;;;25.27;47.92
63088;BME280;49173;43.164;27.786;2022-08-11T07:13:43;100372.03;;;25.66;47.13
63088;BME280;49173;43.164;27.786;2022-08-11T07:23:12;100380.25;;;25.97;45.68
63088;BME280;49173;43.164;27.786;2022-08-11T07:26:02;100373.63;;;26.07;45.68
63088;BME280;49173;43.164;27.786;2022-08-11T07:28:48;100379.25;;;26.13;45.11
63088;BME280;49173;43.164;27.786;2022-08-11T07:31:29;100374.25;;;26.17;45.04
63088;BME280;49173;43.164;27.786;2022-08-11T07:36:50;100380.81;;;26.16;44.20
63088;BME280;49173;43.164;27.786;2022-08-11T07:39:24;100377.06;;;26.09;43.87
63088;BME280;49173;43.164;27.786;2022-08-11T07:41:52;100377.47;;;26.20;44.69
63088;BME280;49173;43.164;27.786;2022-08-11T07:44:27;100380.22;;;26.20;44.18
63088;BME280;49173;43.164;27.786;2022-08-11T07:46:55;100380.53;;;26.25;43.91
63088;BME280;49173;43.164;27.786;2022-08-11T07:49:44;100378.44;;;26.27;43.76
63088;BME280;49173;43.164;27.786;2022-08-11T07:52:32;100360.53;;;26.32;43.56
63088;BME280;49173;43.164;27.786;2022-08-11T07:55:14;100371.59;;;26.46;44.36
63088;BME280;49173;43.164;27.786;2022-08-11T07:57:45;100373.59;;;26.52;43.22
63088;BME280;49173;43.164;27.786;2022-08-11T08:00:43;100366.13;;;26.38;44.59
63088;BME280;49173;43.164;27.786;2022-08-11T08:03:29;100361.25;;;26.48;43.38
63088;BME280;49173;43.164;27.786;2022-08-11T08:06:18;100357.53;;;26.41;43.69
63088;BME280;49173;43.164;27.786;2022-08-11T08:09:03;100367.19;;;26.37;43.79
63088;BME280;49173;43.164;27.786;2022-08-11T08:11:53;100364.19;;;26.47;43.12
63088;BME280;49173;43.164;27.786;2022-08-11T08:14:38;100350.91;;;26.50;42.98
63088;BME280;49173;43.164;27.786;2022-08-11T08:17:24;100361.16;;;26.56;43.29
63088;BME280;49173;43.164;27.786;2022-08-11T08:20:12;100360.50;;;26.69;43.50
63088;BME280;49173;43.164;27.786;2022-08-11T08:22:43;100350.25;;;26.78;42.19
63088;BME280;49173;43.164;27.786;2022-08-11T08:25:13;100347.69;;;26.91;42.87
63088;BME280;49173;43.164;27.786;2022-08-11T08:27:43;100355.69;;;27.01;42.63
63088;BME280;49173;43.164;27.786;2022-08-11T08:30:11;100352.84;;;27.09;41.73
63088;BME280;49173;43.164;27.786;2022-08-11T08:32:57;100362.16;;;27.08;40.96
63088;BME280;49173;43.164;27.786;2022-08-11T08:35:26;100354.75;;;27.08;40.68
63088;BME280;49173;43.164;27.786;2022-08-11T08:37:56;100355.09;;;27.05;40.37
63088;BME280;49173;43.164;27.786;2022-08-11T08:40:28;100360.91;;;27.10;40.72
63088;BME280;49173;43.164;27.786;2022-08-11T08:43:02;100359.66;;;27.13;40.60
63088;BME280;49173;43.164;27.786;2022-08-11T08:45:33;100351.97;;;27.23;40.35
63088;BME280;49173;43.164;27.786;2022-08-11T08:48:03;100353.22;;;27.21;39.58
63088;BME280;49173;43.164;27.786;2022-08-11T08:50:35;100359.84;;;27.26;40.21
63088;BME280;49173;43.164;27.786;2022-08-11T08:53:25;100348.16;;;27.24;39.91
63088;BME280;49173;43.164;27.786;2022-08-11T08:56:00;100345.00;;;27.27;40.11
63088;BME280;49173;43.164;27.786;2022-08-11T08:58:28;100365.50;;;27.40;40.31
63088;BME280;49173;43.164;27.786;2022-08-11T09:00:58;100345.16;;;27.41;39.23
63088;BME280;49173;43.164;27.786;2022-08-11T09:03:29;100335.88;;;27.42;38.34
63088;BME280;49173;43.164;27.786;2022-08-11T09:05:57;100337.19;;;27.46;39.94
63088;BME280;49173;43.164;27.786;2022-08-11T09:08:24;100341.44;;;27.48;39.19
63088;BME280;49173;43.164;27.786;2022-08-11T09:10:51;100349.91;;;27.47;39.33
63088;BME280;49173;43.164;27.786;2022-08-11T09:13:41;100348.59;;;27.43;39.92
63088;BME280;49173;43.164;27.786;2022-08-11T09:16:09;100347.69;;;27.57;39.03
63088;BME280;49173;43.164;27.786;2022-08-11T09:18:37;100342.44;;;27.62;39.20
63088;BME280;49173;43.164;27.786;2022-08-11T09:21:05;100350.25;;;27.58;39.21
63088;BME280;49173;43.164;27.786;2022-08-11T09:23:32;100342.06;;;27.65;38.53
63088;BME280;49173;43.164;27.786;2022-08-11T09:26:20;100344.06;;;27.71;37.65
63088;BME280;49173;43.164;27.786;2022-08-11T09:29:07;100339.59;;;27.70;38.40
63088;BME280;49173;43.164;27.786;2022-08-11T09:31:35;100349.66;;;27.78;38.34
63088;BME280;49173;43.164;27.786;2022-08-11T09:34:02;100337.69;;;27.92;38.53
63088;BME280;49173;43.164;27.786;2022-08-11T09:36:29;100339.00;;;27.96;38.14
63088;BME280;49173;43.164;27.786;2022-08-11T09:39:14;100332.31;;;27.84;38.05
63088;BME280;49173;43.164;27.786;2022-08-11T09:42:02;100334.94;;;27.92;38.34
63088;BME280;49173;43.164;27.786;2022-08-11T09:44:30;100334.47;;;27.88;37.76
63088;BME280;49173;43.164;27.786;2022-08-11T09:49:45;100333.53;;;28.03;37.55
63088;BME280;49173;43.164;27.786;2022-08-11T09:52:17;100337.91;;;28.18;37.46
63088;BME280;49173;43.164;27.786;2022-08-11T09:54:46;100336.41;;;28.37;37.92
63088;BME280;49173;43.164;27.786;2022-08-11T09:57:13;100332.25;;;28.48;37.79
63088;BME280;49173;43.164;27.786;2022-08-11T10:00:05;100335.25;;;28.53;36.65
63088;BME280;49173;43.164;27.786;2022-08-11T10:02:32;100314.75;;;28.69;36.95
63088;BME280;49173;43.164;27.786;2022-08-11T10:05:01;100319.47;;;28.82;36.89
63088;BME280;49173;43.164;27.786;2022-08-11T10:07:49;100320.66;;;28.94;37.40
63088;BME280;49173;43.164;27.786;2022-08-11T10:10:22;100327.50;;;29.05;36.49
63088;BME280;49173;43.164;27.786;2022-08-11T10:13:00;100313.72;;;29.11;35.95
63088;BME280;49173;43.164;27.786;2022-08-11T10:15:31;100317.34;;;29.12;34.98
63088;BME280;49173;43.164;27.786;2022-08-11T10:18:14;100323.03;;;29.10;35.72
63088;BME280;49173;43.164;27.786;2022-08-11T10:21:02;100313.53;;;29.19;35.69
63088;BME280;49173;43.164;27.786;2022-08-11T10:23:32;100316.13;;;29.27;35.65
63088;BME280;49173;43.164;27.786;2022-08-11T10:26:22;100309.97;;;29.39;34.79
63088;BME280;49173;43.164;27.786;2022-08-11T10:29:09;100309.63;;;29.55;35.18
63088;BME280;49173;43.164;27.786;2022-08-11T10:31:57;100314.72;;;29.58;34.71
63088;BME280;49173;43.164;27.786;2022-08-11T10:34:47;100318.34;;;29.59;34.96
63088;BME280;49173;43.164;27.786;2022-08-11T10:37:15;100331.56;;;29.63;34.88
63088;BME280;49173;43.164;27.786;2022-08-11T10:39:44;100320.72;;;29.62;34.63
63088;BME280;49173;43.164;27.786;2022-08-11T10:42:13;100324.97;;;29.64;35.12
63088;BME280;49173;43.164;27.786;2022-08-11T10:44:58;100322.44;;;29.83;34.82
63088;BME280;49173;43.164;27.786;2022-08-11T10:47:31;100316.06;;;29.95;34.52
63088;BME280;49173;43.164;27.786;2022-08-11T10:52:49;100324.84;;;30.25;35.09
63088;BME280;49173;43.164;27.786;2022-08-11T10:55:37;100319.50;;;30.37;34.13
63088;BME280;49173;43.164;27.786;2022-08-11T10:58:23;100308.84;;;30.27;33.05
63088;BME280;49173;43.164;27.786;2022-08-11T11:01:08;100312.47;;;30.34;33.63
63088;BME280;49173;43.164;27.786;2022-08-11T11:03:36;100304.38;;;30.46;33.77
63088;BME280;49173;43.164;27.786;2022-08-11T11:06:37;100306.28;;;30.46;33.10
63088;BME280;49173;43.164;27.786;2022-08-11T11:09:19;100307.38;;;30.38;32.77
63088;BME280;49173;43.164;27.786;2022-08-11T11:11:52;100297.56;;;30.35;34.11
63088;BME280;49173;43.164;27.786;2022-08-11T11:14:52;100294.38;;;30.39;32.68
63088;BME280;49173;43.164;27.786;2022-08-11T11:17:44;100296.28;;;30.45;32.36
63088;BME280;49173;43.164;27.786;2022-08-11T11:20:32;100284.53;;;30.49;33.54
63088;BME280;49173;43.164;27.786;2022-08-11T11:23:11;100287.28;;;30.69;33.15
63088;BME280;49173;43.164;27.786;2022-08-11T11:36:48;100289.03;;;31.15;31.38
63088;BME280;49173;43.164;27.786;2022-08-11T11:39:17;100286.44;;;31.20;32.39
63088;BME280;49173;43.164;27.786;2022-08-11T11:41:53;100279.78;;;31.34;31.67
63088;BME280;49173;43.164;27.786;2022-08-11T11:44:21;100269.28;;;31.43;30.86
63088;BME280;49173;43.164;27.786;2022-08-11T11:46:51;100274.75;;;31.56;31.22
63088;BME280;49173;43.164;27.786;2022-08-11T11:49:23;100283.16;;;31.75;31.38
63088;BME280;49173;43.164;27.786;2022-08-11T11:51:53;100268.03;;;31.70;30.05
63088;BME280;49173;43.164;27.786;2022-08-11T11:54:23;100268.44;;;31.74;30.80
63088;BME280;49173;43.164;27.786;2022-08-11T11:56:56;100263.59;;;31.94;30.47
63088;BME280;49173;43.164;27.786;2022-08-11T11:59:25;100270.69;;;31.90;29.91
63088;BME280;49173;43.164;27.786;2022-08-11T12:02:13;100271.94;;;31.94;30.31
63088;BME280;49173;43.164;27.786;2022-08-11T12:04:43;100265.88;;;32.04;30.78
63088;BME280;49173;43.164;27.786;2022-08-11T12:07:10;100258.38;;;32.05;29.72
63088;BME280;49173;43.164;27.786;2022-08-11T12:09:56;100266.94;;;32.03;29.58
63088;BME280;49173;43.164;27.786;2022-08-11T12:12:24;100257.88;;;31.89;29.72
63088;BME280;49173;43.164;27.786;2022-08-11T12:15:09;100265.03;;;31.72;30.31
63088;BME280;49173;43.164;27.786;2022-08-11T12:17:36;100258.03;;;31.63;30.89
63088;BME280;49173;43.164;27.786;2022-08-11T12:20:07;100254.84;;;31.66;30.70
63088;BME280;49173;43.164;27.786;2022-08-11T12:22:34;100273.75;;;31.76;31.12
63088;BME280;49173;43.164;27.786;2022-08-11T12:28:43;100261.28;;;31.91;30.48
63088;BME280;49173;43.164;27.786;2022-08-11T12:31:10;100270.25;;;31.93;30.69
63088;BME280;49173;43.164;27.786;2022-08-11T12:33:38;100259.88;;;32.07;30.33
63088;BME280;49173;43.164;27.786;2022-08-11T12:36:11;100262.56;;;32.14;29.99
63088;BME280;49173;43.164;27.786;2022-08-11T12:38:44;100259.53;;;32.22;30.09
63088;BME280;49173;43.164;27.786;2022-08-11T12:41:15;100268.63;;;32.29;29.64
63088;BME280;49173;43.164;27.786;2022-08-11T12:44:00;100263.69;;;32.31;30.16
63088;BME280;49173;43.164;27.786;2022-08-11T12:46:46;100263.59;;;32.44;29.41
63088;BME280;49173;43.164;27.786;2022-08-11T12:49:18;100263.97;;;32.48;29.63
63088;BME280;49173;43.164;27.786;2022-08-11T12:52:09;100259.41;;;32.35;29.20
63088;BME280;49173;43.164;27.786;2022-08-11T12:54:55;100266.44;;;32.38;29.82
63088;BME280;49173;43.164;27.786;2022-08-11T13:00:18;100267.53;;;32.37;29.53
63088;BME280;49173;43.164;27.786;2022-08-11T13:03:08;100260.06;;;32.31;29.92
63088;BME280;49173;43.164;27.786;2022-08-11T13:06:01;100267.22;;;32.20;29.66
63088;BME280;49173;43.164;27.786;2022-08-11T13:08:33;100259.88;;;32.07;29.35
63088;BME280;49173;43.164;27.786;2022-08-11T13:11:02;100266.38;;;31.94;29.91
63088;BME280;49173;43.164;27.786;2022-08-11T13:13:49;100258.50;;;31.91;29.79
63088;BME280;49173;43.164;27.786;2022-08-11T13:16:18;100266.25;;;31.83;29.85
63088;BME280;49173;43.164;27.786;2022-08-11T13:18:47;100255.38;;;31.81;30.30
63088;BME280;49173;43.164;27.786;2022-08-11T13:21:15;100257.69;;;31.84;30.14
63088;BME280;49173;43.164;27.786;2022-08-11T13:23:49;100250.91;;;31.80;30.67
63088;BME280;49173;43.164;27.786;2022-08-11T13:26:17;100257.69;;;31.84;30.65
63088;BME280;49173;43.164;27.786;2022-08-11T13:28:43;100253.00;;;31.85;30.71
63088;BME280;49173;43.164;27.786;2022-08-11T13:31:10;100253.63;;;31.87;30.75
63088;BME280;49173;43.164;27.786;2022-08-11T13:33:47;100252.56;;;31.88;30.31
63088;BME280;49173;43.164;27.786;2022-08-11T13:36:22;100250.44;;;31.83;30.73
63088;BME280;49173;43.164;27.786;2022-08-11T13:38:54;100251.59;;;31.69;30.26
63088;BME280;49173;43.164;27.786;2022-08-11T13:41:25;100259.25;;;31.74;30.98
63088;BME280;49173;43.164;27.786;2022-08-11T13:44:06;100248.22;;;31.67;31.00
63088;BME280;49173;43.164;27.786;2022-08-11T13:46:32;100242.19;;;31.70;31.19
63088;BME280;49173;43.164;27.786;2022-08-11T13:48:59;100244.28;;;31.81;30.89
63088;BME280;49173;43.164;27.786;2022-08-11T13:51:27;100247.50;;;31.78;30.74
63088;BME280;49173;43.164;27.786;2022-08-11T13:54:27;100252.00;;;31.79;31.20
63088;BME280;49173;43.164;27.786;2022-08-11T13:57:02;100248.22;;;31.67;31.13
63088;BME280;49173;43.164;27.786;2022-08-11T13:59:30;100247.13;;;31.68;31.32
63088;BME280;49173;43.164;27.786;2022-08-11T14:02:06;100239.28;;;31.65;31.31
63088;BME280;49173;43.164;27.786;2022-08-11T14:04:48;100256.53;;;31.67;31.31
63088;BME280;49173;43.164;27.786;2022-08-11T14:07:23;100253.06;;;31.71;31.34
63088;BME280;49173;43.164;27.786;2022-08-11T14:09:57;100245.78;;;31.77;31.30
63088;BME280;49173;43.164;27.786;2022-08-11T14:12:32;100254.59;;;31.67;31.24
63088;BME280;49173;43.164;27.786;2022-08-11T14:15:25;100256.06;;;31.70;31.50
63088;BME280;49173;43.164;27.786;2022-08-11T14:18:16;100257.63;;;31.66;31.26
63088;BME280;49173;43.164;27.786;2022-08-11T14:20:54;100255.75;;;31.60;30.72
63088;BME280;49173;43.164;27.786;2022-08-11T14:23:41;100250.19;;;31.60;31.26
63088;BME280;49173;43.164;27.786;2022-08-11T14:26:09;100257.19;;;31.62;31.85
63088;BME280;49173;43.164;27.786;2022-08-11T14:28:59;100253.81;;;31.60;30.64
63088;BME280;49173;43.164;27.786;2022-08-11T14:31:29;100256.84;;;31.52;31.48
63088;BME280;49173;43.164;27.786;2022-08-11T14:34:00;100259.88;;;31.51;31.32
63088;BME280;49173;43.164;27.786;2022-08-11T14:36:31;100257.97;;;31.44;31.64
63088;BME280;49173;43.164;27.786;2022-08-11T14:39:05;100251.13;;;31.47;31.63
63088;BME280;49173;43.164;27.786;2022-08-11T14:41:33;100250.34;;;31.33;31.08
63088;BME280;49173;43.164;27.786;2022-08-11T14:44:19;100262.34;;;31.27;31.79
63088;BME280;49173;43.164;27.786;2022-08-11T14:47:05;100266.38;;;31.31;31.80
63088;BME280;49173;43.164;27.786;2022-08-11T14:49:36;100265.50;;;31.37;31.79
63088;BME280;49173;43.164;27.786;2022-08-11T14:52:09;100260.78;;;31.38;31.49
63088;BME280;49173;43.164;27.786;2022-08-11T14:54:36;100254.16;;;31.39;31.65
63088;BME280;49173;43.164;27.786;2022-08-11T14:57:22;100255.00;;;31.39;31.57
63088;BME280;49173;43.164;27.786;2022-08-11T14:59:49;100251.78;;;31.42;31.77
63088;BME280;49173;43.164;27.786;2022-08-11T15:02:17;100252.84;;;31.41;31.08
63088;BME280;49173;43.164;27.786;2022-08-11T15:05:04;100253.28;;;31.45;31.35
63088;BME280;49173;43.164;27.786;2022-08-11T15:07:35;100252.81;;;31.48;31.68
63088;BME280;49173;43.164;27.786;2022-08-11T15:10:07;100249.38;;;31.53;31.48
63088;BME280;49173;43.164;27.786;2022-08-11T15:12:36;100248.97;;;31.49;30.77
63088;BME280;49173;43.164;27.786;2022-08-11T15:15:06;100256.28;;;31.43;31.07
63088;BME280;49173;43.164;27.786;2022-08-11T15:17:53;100239.91;;;31.29;32.06
63088;BME280;49173;43.164;27.786;2022-08-11T15:20:21;100246.53;;;31.28;31.93
63088;BME280;49173;43.164;27.786;2022-08-11T15:23:09;100253.16;;;31.27;31.70
63088;BME280;49173;43.164;27.786;2022-08-11T15:25:59;100247.63;;;31.20;31.22
63088;BME280;49173;43.164;27.786;2022-08-11T15:28:36;100248.97;;;31.11;31.80
63088;BME280;49173;43.164;27.786;2022-08-11T15:31:24;100248.53;;;31.07;31.86
63088;BME280;49173;43.164;27.786;2022-08-11T15:34:14;100250.66;;;31.12;31.45
63088;BME280;49173;43.164;27.786;2022-08-11T15:37:06;100251.09;;;31.15;31.70
63088;BME280;49173;43.164;27.786;2022-08-11T15:40:00;100249.38;;;31.08;31.86
63088;BME280;49173;43.164;27.786;2022-08-11T15:45:44;100256.50;;;30.97;31.87
63088;BME280;49173;43.164;27.786;2022-08-11T15:51:10;100253.97;;;30.89;31.81
63088;BME280;49173;43.164;27.786;2022-08-11T15:53:41;100262.50;;;30.94;31.73
63088;BME280;49173;43.164;27.786;2022-08-11T15:56:09;100253.28;;;31.00;31.82
63088;BME280;49173;43.164;27.786;2022-08-11T15:58:43;100255.38;;;31.05;31.69
63088;BME280;49173;43.164;27.786;2022-08-11T16:01:30;100248.78;;;31.06;32.11
63088;BME280;49173;43.164;27.786;2022-08-11T16:04:21;100253.25;;;31.07;32.21
63088;BME280;49173;43.164;27.786;2022-08-11T16:07:04;100256.72;;;30.96;31.75
63088;BME280;49173;43.164;27.786;2022-08-11T16:09:33;100252.88;;;30.97;31.81
63088;BME280;49173;43.164;27.786;2022-08-11T16:12:05;100259.06;;;30.92;31.98
63088;BME280;49173;43.164;27.786;2022-08-11T16:14:45;100255.47;;;30.85;32.03
63088;BME280;49173;43.164;27.786;2022-08-11T16:17:42;100262.31;;;30.82;32.01
63088;BME280;49173;43.164;27.786;2022-08-11T16:20:12;100258.69;;;30.82;32.05
63088;BME280;49173;43.164;27.786;2022-08-11T16:22:44;100261.03;;;30.78;31.87
63088;BME280;49173;43.164;27.786;2022-08-11T16:25:18;100277.88;;;30.77;31.97
63088;BME280;49173;43.164;27.786;2022-08-11T16:27:55;100271.06;;;30.73;31.72
63088;BME280;49173;43.164;27.786;2022-08-11T16:30:30;100260.00;;;30.66;32.32
63088;BME280;49173;43.164;27.786;2022-08-11T16:32:57;100267.66;;;30.64;32.32
63088;BME280;49173;43.164;27.786;2022-08-11T16:35:28;100260.88;;;30.67;32.60
63088;BME280;49173;43.164;27.786;2022-08-11T16:38:23;100264.28;;;30.55;32.28
63088;BME280;49173;43.164;27.786;2022-08-11T16:41:04;100265.78;;;30.51;32.31
63088;BME280;49173;43.164;27.786;2022-08-11T16:43:34;100264.06;;;30.57;32.81
63088;BME280;49173;43.164;27.786;2022-08-11T16:46:22;100266.44;;;30.53;32.89
63088;BME280;49173;43.164;27.786;2022-08-11T16:49:19;100271.97;;;30.47;33.31
63088;BME280;49173;43.164;27.786;2022-08-11T16:51:46;100265.59;;;30.46;33.15
63088;BME280;49173;43.164;27.786;2022-08-11T16:54:13;100265.81;;;30.45;33.35
63088;BME280;49173;43.164;27.786;2022-08-11T16:56:44;100263.06;;;30.38;33.10
63088;BME280;49173;43.164;27.786;2022-08-11T16:59:25;100271.16;;;30.26;33.42
63088;BME280;49173;43.164;27.786;2022-08-11T17:02:03;100271.16;;;30.26;33.56
63088;BME280;49173;43.164;27.786;2022-08-11T17:04:47;100276.28;;;30.16;33.33